sensor_id;sensor_type;location;lat;lon;timestamp;P1;P2;P0
77515;PMS5003;66627;29.424;-98.496;2024-02-21T00:00:51;6;5;
77515;PMS5003;66627;29.424;-98.496;2024-02-21T00:03:14;6;6;
77515;PMS5003;66627;29.424;-98.496;2024-02-21T00:05:39;5;5;
77515;PMS5003;66627;29.424;-98.496;2024-02-21T00:08:05;4;4;
77515;PMS5003;66627;29.424;-98.496;2024-02-21T00:10:30;6;5;
77515;PMS5003;66627;29.424;-98.496;2024-02-21T00:12:54;5;5;
77515;PMS5003;66627;29.424;-98.496;2024-02-21T00:15:20;5;5;
77515;PMS5003;66627;29.424;-98.496;2024-02-21T00:17:45;6;6;
77515;PMS5003;66627;29.424;-98.496;2024-02-21T00:20:10;4;4;
77515;PMS5003;66627;29.424;-98.496;2024-02-21T00:22:35;5;5;
77515;PMS5003;66627;29.424;-98.496;2024-02-21T00:25:00;5;5;
77515;PMS5003;66627;29.424;-98.496;2024-02-21T00:27:26;4;4;
77515;PMS5003;66627;29.424;-98.496;2024-02-21T00:29:51;7;6;
77515;PMS5003;66627;29.424;-98.496;2024-02-21T00:32:16;6;6;
77515;PMS5003;66627;29.424;-98.496;2024-02-21T00:34:42;8;8;
77515;PMS5003;66627;29.424;-98.496;2024-02-21T00:37:07;6;6;
77515;PMS5003;66627;29.424;-98.496;2024-02-21T00:39:33;9;8;
77515;PMS5003;66627;29.424;-98.496;2024-02-21T00:41:58;10;10;
77515;PMS5003;66627;29.424;-98.496;2024-02-21T00:44:22;15;15;
77515;PMS5003;66627;29.424;-98.496;2024-02-21T00:46:48;14;12;
77515;PMS5003;66627;29.424;-98.496;2024-02-21T00:49:13;14;12;
77515;PMS5003;66627;29.424;-98.496;2024-02-21T00:51:39;7;7;
77515;PMS5003;66627;29.424;-98.496;2024-02-21T00:54:05;7;7;
77515;PMS5003;66627;29.424;-98.496;2024-02-21T00:56:30;9;9;
77515;PMS5003;66627;29.424;-98.496;2024-02-21T00:58:55;5;5;
77515;PMS5003;66627;29.424;-98.496;2024-02-21T01:01:21;9;9;
77515;PMS5003;66627;29.424;-98.496;2024-02-21T01:03:45;10;10;
77515;PMS5003;66627;29.424;-98.496;2024-02-21T01:06:11;9;7;
77515;PMS5003;66627;29.424;-98.496;2024-02-21T01:08:36;10;9;
77515;PMS5003;66627;29.424;-98.496;2024-02-21T01:11:01;7;7;
77515;PMS5003;66627;29.424;-98.496;2024-02-21T01:13:26;10;10;
77515;PMS5003;66627;29.424;-98.496;2024-02-21T01:15:52;9;9;
77515;PMS5003;66627;29.424;-98.496;2024-02-21T01:18:17;10;10;
77515;PMS5003;66627;29.424;-98.496;2024-02-21T01:20:43;14;11;
77515;PMS5003;66627;29.424;-98.496;2024-02-21T01:23:08;18;14;
77515;PMS5003;66627;29.424;-98.496;2024-02-21T01:25:33;16;14;
77515;PMS5003;66627;29.424;-98.496;2024-02-21T01:27:59;17;16;
77515;PMS5003;66627;29.424;-98.496;2024-02-21T01:30:24;13;13;
77515;PMS5003;66627;29.424;-98.496;2024-02-21T01:32:51;14;13;
77515;PMS5003;66627;29.424;-98.496;2024-02-21T01:35:15;14;13;
77515;PMS5003;66627;29.424;-98.496;2024-02-21T01:37:41;16;16;
77515;PMS5003;66627;29.424;-98.496;2024-02-21T01:40:07;22;22;
77515;PMS5003;66627;29.424;-98.496;2024-02-21T01:42:32;25;24;
77515;PMS5003;66627;29.424;-98.496;2024-02-21T01:44:58;27;26;
77515;PMS5003;66627;29.424;-98.496;2024-02-21T01:47:25;25;24;
77515;PMS5003;66627;29.424;-98.496;2024-02-21T01:49:50;23;20;
77515;PMS5003;66627;29.424;-98.496;2024-02-21T01:52:16;18;18;
77515;PMS5003;66627;29.424;-98.496;2024-02-21T01:54:41;18;17;
77515;PMS5003;66627;29.424;-98.496;2024-02-21T01:57:07;14;14;
77515;PMS5003;66627;29.424;-98.496;2024-02-21T01:59:31;14;14;
77515;PMS5003;66627;29.424;-98.496;2024-02-21T02:01:57;11;11;
77515;PMS5003;66627;29.424;-98.496;2024-02-21T02:04:23;14;14;
77515;PMS5003;66627;29.424;-98.496;2024-02-21T02:06:48;10;10;
77515;PMS5003;66627;29.424;-98.496;2024-02-21T02:09:13;11;11;
77515;PMS5003;66627;29.424;-98.496;2024-02-21T02:11:38;11;11;
77515;PMS5003;66627;29.424;-98.496;2024-02-21T02:14:04;11;11;
77515;PMS5003;66627;29.424;-98.496;2024-02-21T02:16:29;14;12;
77515;PMS5003;66627;29.424;-98.496;2024-02-21T02:18:55;15;12;
77515;PMS5003;66627;29.424;-98.496;2024-02-21T02:21:23;13;13;
77515;PMS5003;66627;29.424;-98.496;2024-02-21T02:23:45;10;9;
77515;PMS5003;66627;29.424;-98.496;2024-02-21T02:26:11;9;9;
77515;PMS5003;66627;29.424;-98.496;2024-02-21T02:28:37;10;8;
77515;PMS5003;66627;29.424;-98.496;2024-02-21T02:31:01;10;10;
77515;PMS5003;66627;29.424;-98.496;2024-02-21T02:33:26;9;9;
77515;PMS5003;66627;29.424;-98.496;2024-02-21T02:35:53;8;8;
77515;PMS5003;66627;29.424;-98.496;2024-02-21T02:38:17;11;9;
77515;PMS5003;66627;29.424;-98.496;2024-02-21T02:40:42;8;7;
77515;PMS5003;66627;29.424;-98.496;2024-02-21T02:43:07;7;7;
77515;PMS5003;66627;29.424;-98.496;2024-02-21T02:45:32;10;9;
77515;PMS5003;66627;29.424;-98.496;2024-02-21T02:47:58;8;8;
77515;PMS5003;66627;29.424;-98.496;2024-02-21T02:50:24;8;8;
77515;PMS5003;66627;29.424;-98.496;2024-02-21T02:52:48;9;9;
77515;PMS5003;66627;29.424;-98.496;2024-02-21T02:55:14;11;10;
77515;PMS5003;66627;29.424;-98.496;2024-02-21T02:57:38;9;9;
77515;PMS5003;66627;29.424;-98.496;2024-02-21T03:00:03;9;8;
77515;PMS5003;66627;29.424;-98.496;2024-02-21T03:02:29;12;12;
77515;PMS5003;66627;29.424;-98.496;2024-02-21T03:04:54;10;10;
77515;PMS5003;66627;29.424;-98.496;2024-02-21T03:07:19;11;9;
77515;PMS5003;66627;29.424;-98.496;2024-02-21T03:09:45;12;11;
77515;PMS5003;66627;29.424;-98.496;2024-02-21T03:12:09;11;11;
77515;PMS5003;66627;29.424;-98.496;2024-02-21T03:14:35;11;9;
77515;PMS5003;66627;29.424;-98.496;2024-02-21T03:17:00;11;11;
77515;PMS5003;66627;29.424;-98.496;2024-02-21T03:19:25;11;10;
77515;PMS5003;66627;29.424;-98.496;2024-02-21T03:21:50;14;12;
77515;PMS5003;66627;29.424;-98.496;2024-02-21T03:24:16;13;10;
77515;PMS5003;66627;29.424;-98.496;2024-02-21T03:26:41;13;12;
77515;PMS5003;66627;29.424;-98.496;2024-02-21T03:29:07;10;10;
77515;PMS5003;66627;29.424;-98.496;2024-02-21T03:31:32;10;10;
77515;PMS5003;66627;29.424;-98.496;2024-02-21T03:33:57;11;10;
77515;PMS5003;66627;29.424;-98.496;2024-02-21T03:36:22;11;11;
77515;PMS5003;66627;29.424;-98.496;2024-02-21T03:38:47;13;11;
77515;PMS5003;66627;29.424;-98.496;2024-02-21T03:41:13;12;11;
77515;PMS5003;66627;29.424;-98.496;2024-02-21T03:43:38;10;10;
77515;PMS5003;66627;29.424;-98.496;2024-02-21T03:46:03;11;11;
77515;PMS5003;66627;29.424;-98.496;2024-02-21T03:48:29;12;11;
77515;PMS5003;66627;29.424;-98.496;2024-02-21T03:50:54;12;12;
77515;PMS5003;66627;29.424;-98.496;2024-02-21T03:53:20;13;13;
77515;PMS5003;66627;29.424;-98.496;2024-02-21T03:55:44;9;9;
77515;PMS5003;66627;29.424;-98.496;2024-02-21T03:58:11;11;9;
77515;PMS5003;66627;29.424;-98.496;2024-02-21T04:00:36;17;14;
77515;PMS5003;66627;29.424;-98.496;2024-02-21T04:03:01;15;13;
77515;PMS5003;66627;29.424;-98.496;2024-02-21T04:05:27;12;10;
77515;PMS5003;66627;29.424;-98.496;2024-02-21T04:07:52;13;12;
77515;PMS5003;66627;29.424;-98.496;2024-02-21T04:10:17;13;12;
77515;PMS5003;66627;29.424;-98.496;2024-02-21T04:12:42;14;12;
77515;PMS5003;66627;29.424;-98.496;2024-02-21T04:15:08;10;10;
77515;PMS5003;66627;29.424;-98.496;2024-02-21T04:17:34;14;12;
77515;PMS5003;66627;29.424;-98.496;2024-02-21T04:20:02;13;13;
77515;PMS5003;66627;29.424;-98.496;2024-02-21T04:22:24;11;10;
77515;PMS5003;66627;29.424;-98.496;2024-02-21T04:24:50;11;11;
77515;PMS5003;66627;29.424;-98.496;2024-02-21T04:27:15;14;11;
77515;PMS5003;66627;29.424;-98.496;2024-02-21T04:29:41;11;11;
77515;PMS5003;66627;29.424;-98.496;2024-02-21T04:32:07;12;11;
77515;PMS5003;66627;29.424;-98.496;2024-02-21T04:34:32;9;9;
77515;PMS5003;66627;29.424;-98.496;2024-02-21T04:36:57;12;10;
77515;PMS5003;66627;29.424;-98.496;2024-02-21T04:39:22;11;10;
77515;PMS5003;66627;29.424;-98.496;2024-02-21T04:41:48;12;12;
77515;PMS5003;66627;29.424;-98.496;2024-02-21T04:44:13;11;10;
77515;PMS5003;66627;29.424;-98.496;2024-02-21T04:46:38;11;10;
77515;PMS5003;66627;29.424;-98.496;2024-02-21T04:49:04;11;11;
77515;PMS5003;66627;29.424;-98.496;2024-02-21T04:51:28;13;12;
77515;PMS5003;66627;29.424;-98.496;2024-02-21T04:53:54;13;13;
77515;PMS5003;66627;29.424;-98.496;2024-02-21T04:56:20;12;11;
77515;PMS5003;66627;29.424;-98.496;2024-02-21T04:58:46;13;13;
77515;PMS5003;66627;29.424;-98.496;2024-02-21T05:01:12;15;12;
77515;PMS5003;66627;29.424;-98.496;2024-02-21T05:03:36;16;14;
77515;PMS5003;66627;29.424;-98.496;2024-02-21T05:06:02;11;11;
77515;PMS5003;66627;29.424;-98.496;2024-02-21T05:08:27;12;10;
77515;PMS5003;66627;29.424;-98.496;2024-02-21T05:10:53;15;13;
77515;PMS5003;66627;29.424;-98.496;2024-02-21T05:13:17;11;11;
77515;PMS5003;66627;29.424;-98.496;2024-02-21T05:15:43;12;12;
77515;PMS5003;66627;29.424;-98.496;2024-02-21T05:18:08;14;12;
77515;PMS5003;66627;29.424;-98.496;2024-02-21T05:20:33;16;15;
77515;PMS5003;66627;29.424;-98.496;2024-02-21T05:22:59;11;11;
77515;PMS5003;66627;29.424;-98.496;2024-02-21T05:25:25;13;11;
77515;PMS5003;66627;29.424;-98.496;2024-02-21T05:27:51;10;10;
77515;PMS5003;66627;29.424;-98.496;2024-02-21T05:30:16;11;11;
77515;PMS5003;66627;29.424;-98.496;2024-02-21T05:32:40;13;12;
77515;PMS5003;66627;29.424;-98.496;2024-02-21T05:35:07;11;11;
77515;PMS5003;66627;29.424;-98.496;2024-02-21T05:37:31;13;13;
77515;PMS5003;66627;29.424;-98.496;2024-02-21T05:39:58;13;13;
77515;PMS5003;66627;29.424;-98.496;2024-02-21T05:42:23;16;14;
77515;PMS5003;66627;29.424;-98.496;2024-02-21T05:44:47;11;11;
77515;PMS5003;66627;29.424;-98.496;2024-02-21T05:47:13;15;13;
77515;PMS5003;66627;29.424;-98.496;2024-02-21T05:49:39;14;12;
77515;PMS5003;66627;29.424;-98.496;2024-02-21T05:54:29;13;12;
77515;PMS5003;66627;29.424;-98.496;2024-02-21T05:56:56;13;13;
77515;PMS5003;66627;29.424;-98.496;2024-02-21T05:59:21;16;16;
77515;PMS5003;66627;29.424;-98.496;2024-02-21T06:04:13;21;19;
77515;PMS5003;66627;29.424;-98.496;2024-02-21T06:06:37;16;14;
77515;PMS5003;66627;29.424;-98.496;2024-02-21T06:09:03;16;15;
77515;PMS5003;66627;29.424;-98.496;2024-02-21T06:11:29;16;16;
77515;PMS5003;66627;29.424;-98.496;2024-02-21T06:13:54;13;13;
77515;PMS5003;66627;29.424;-98.496;2024-02-21T06:16:20;13;12;
77515;PMS5003;66627;29.424;-98.496;2024-02-21T06:18:44;14;14;
77515;PMS5003;66627;29.424;-98.496;2024-02-21T06:21:11;15;14;
77515;PMS5003;66627;29.424;-98.496;2024-02-21T06:23:36;15;13;
77515;PMS5003;66627;29.424;-98.496;2024-02-21T06:26:00;15;15;
77515;PMS5003;66627;29.424;-98.496;2024-02-21T06:28:26;14;13;
77515;PMS5003;66627;29.424;-98.496;2024-02-21T06:30:51;18;16;
77515;PMS5003;66627;29.424;-98.496;2024-02-21T06:33:17;15;13;
77515;PMS5003;66627;29.424;-98.496;2024-02-21T06:35:42;14;13;
77515;PMS5003;66627;29.424;-98.496;2024-02-21T06:38:08;13;13;
77515;PMS5003;66627;29.424;-98.496;2024-02-21T06:40:34;14;13;
77515;PMS5003;66627;29.424;-98.496;2024-02-21T06:42:58;12;12;
77515;PMS5003;66627;29.424;-98.496;2024-02-21T06:45:24;15;13;
77515;PMS5003;66627;29.424;-98.496;2024-02-21T06:47:49;17;14;
77515;PMS5003;66627;29.424;-98.496;2024-02-21T06:50:15;16;16;
77515;PMS5003;66627;29.424;-98.496;2024-02-21T06:52:40;18;16;
77515;PMS5003;66627;29.424;-98.496;2024-02-21T06:55:05;20;17;
77515;PMS5003;66627;29.424;-98.496;2024-02-21T06:57:31;18;15;
77515;PMS5003;66627;29.424;-98.496;2024-02-21T06:59:56;13;13;
77515;PMS5003;66627;29.424;-98.496;2024-02-21T07:02:22;14;13;
77515;PMS5003;66627;29.424;-98.496;2024-02-21T07:04:48;16;16;
77515;PMS5003;66627;29.424;-98.496;2024-02-21T07:07:12;15;14;
77515;PMS5003;66627;29.424;-98.496;2024-02-21T07:09:37;13;13;
77515;PMS5003;66627;29.424;-98.496;2024-02-21T07:12:03;18;18;
77515;PMS5003;66627;29.424;-98.496;2024-02-21T07:14:28;16;16;
77515;PMS5003;66627;29.424;-98.496;2024-02-21T07:16:54;15;15;
77515;PMS5003;66627;29.424;-98.496;2024-02-21T07:19:19;16;14;
77515;PMS5003;66627;29.424;-98.496;2024-02-21T07:21:45;18;15;
77515;PMS5003;66627;29.424;-98.496;2024-02-21T07:24:11;20;15;
77515;PMS5003;66627;29.424;-98.496;2024-02-21T07:26:40;14;14;
77515;PMS5003;66627;29.424;-98.496;2024-02-21T07:29:03;20;19;
77515;PMS5003;66627;29.424;-98.496;2024-02-21T07:31:29;18;18;
77515;PMS5003;66627;29.424;-98.496;2024-02-21T07:33:53;22;22;
77515;PMS5003;66627;29.424;-98.496;2024-02-21T07:38:44;19;19;
77515;PMS5003;66627;29.424;-98.496;2024-02-21T07:41:10;21;18;
77515;PMS5003;66627;29.424;-98.496;2024-02-21T07:43:35;23;22;
77515;PMS5003;66627;29.424;-98.496;2024-02-21T07:46:00;19;19;
77515;PMS5003;66627;29.424;-98.496;2024-02-21T07:48:26;18;18;
77515;PMS5003;66627;29.424;-98.496;2024-02-21T07:50:51;25;25;
77515;PMS5003;66627;29.424;-98.496;2024-02-21T07:53:17;18;18;
77515;PMS5003;66627;29.424;-98.496;2024-02-21T07:55:42;25;23;
77515;PMS5003;66627;29.424;-98.496;2024-02-21T07:58:07;25;23;
77515;PMS5003;66627;29.424;-98.496;2024-02-21T08:00:32;25;23;
77515;PMS5003;66627;29.424;-98.496;2024-02-21T08:02:57;23;21;
77515;PMS5003;66627;29.424;-98.496;2024-02-21T08:05:24;30;30;
77515;PMS5003;66627;29.424;-98.496;2024-02-21T08:07:48;30;26;
77515;PMS5003;66627;29.424;-98.496;2024-02-21T08:10:14;39;36;
77515;PMS5003;66627;29.424;-98.496;2024-02-21T08:12:41;52;48;
77515;PMS5003;66627;29.424;-98.496;2024-02-21T08:15:06;61;54;
77515;PMS5003;66627;29.424;-98.496;2024-02-21T08:17:31;62;58;
77515;PMS5003;66627;29.424;-98.496;2024-02-21T08:19:56;54;50;
77515;PMS5003;66627;29.424;-98.496;2024-02-21T08:22:22;63;58;
77515;PMS5003;66627;29.424;-98.496;2024-02-21T08:24:48;52;42;
77515;PMS5003;66627;29.424;-98.496;2024-02-21T08:27:13;37;36;
77515;PMS5003;66627;29.424;-98.496;2024-02-21T08:29:38;29;28;
77515;PMS5003;66627;29.424;-98.496;2024-02-21T08:32:03;25;25;
77515;PMS5003;66627;29.424;-98.496;2024-02-21T08:34:30;33;26;
77515;PMS5003;66627;29.424;-98.496;2024-02-21T08:36:54;29;28;
77515;PMS5003;66627;29.424;-98.496;2024-02-21T08:39:20;24;22;
77515;PMS5003;66627;29.424;-98.496;2024-02-21T08:41:46;18;18;
77515;PMS5003;66627;29.424;-98.496;2024-02-21T08:44:11;21;21;
77515;PMS5003;66627;29.424;-98.496;2024-02-21T08:46:36;24;24;
77515;PMS5003;66627;29.424;-98.496;2024-02-21T08:49:01;16;16;
77515;PMS5003;66627;29.424;-98.496;2024-02-21T08:51:26;21;19;
77515;PMS5003;66627;29.424;-98.496;2024-02-21T08:53:52;21;20;
77515;PMS5003;66627;29.424;-98.496;2024-02-21T08:56:17;18;16;
77515;PMS5003;66627;29.424;-98.496;2024-02-21T08:58:43;16;15;
77515;PMS5003;66627;29.424;-98.496;2024-02-21T09:01:08;20;20;
77515;PMS5003;66627;29.424;-98.496;2024-02-21T09:03:35;19;17;
77515;PMS5003;66627;29.424;-98.496;2024-02-21T09:06:00;22;20;
77515;PMS5003;66627;29.424;-98.496;2024-02-21T09:08:24;20;20;
77515;PMS5003;66627;29.424;-98.496;2024-02-21T09:10:49;21;20;
77515;PMS5003;66627;29.424;-98.496;2024-02-21T09:13:15;25;25;
77515;PMS5003;66627;29.424;-98.496;2024-02-21T09:15:40;24;23;
77515;PMS5003;66627;29.424;-98.496;2024-02-21T09:18:06;20;18;
77515;PMS5003;66627;29.424;-98.496;2024-02-21T09:20:32;24;21;
77515;PMS5003;66627;29.424;-98.496;2024-02-21T09:22:58;28;26;
77515;PMS5003;66627;29.424;-98.496;2024-02-21T09:25:23;23;22;
77515;PMS5003;66627;29.424;-98.496;2024-02-21T09:27:49;22;21;
77515;PMS5003;66627;29.424;-98.496;2024-02-21T09:30:14;23;22;
77515;PMS5003;66627;29.424;-98.496;2024-02-21T09:32:41;23;22;
77515;PMS5003;66627;29.424;-98.496;2024-02-21T09:35:06;20;18;
77515;PMS5003;66627;29.424;-98.496;2024-02-21T09:37:33;28;22;
77515;PMS5003;66627;29.424;-98.496;2024-02-21T09:39:57;30;22;
77515;PMS5003;66627;29.424;-98.496;2024-02-21T09:42:22;25;21;
77515;PMS5003;66627;29.424;-98.496;2024-02-21T09:44:48;16;16;
77515;PMS5003;66627;29.424;-98.496;2024-02-21T09:47:19;30;22;
77515;PMS5003;66627;29.424;-98.496;2024-02-21T09:49:38;29;24;
77515;PMS5003;66627;29.424;-98.496;2024-02-21T09:52:04;24;24;
77515;PMS5003;66627;29.424;-98.496;2024-02-21T09:54:29;25;22;
77515;PMS5003;66627;29.424;-98.496;2024-02-21T09:56:55;27;27;
77515;PMS5003;66627;29.424;-98.496;2024-02-21T09:59:21;33;26;
77515;PMS5003;66627;29.424;-98.496;2024-02-21T10:01:45;28;24;
77515;PMS5003;66627;29.424;-98.496;2024-02-21T10:04:10;23;22;
77515;PMS5003;66627;29.424;-98.496;2024-02-21T10:06:36;33;27;
77515;PMS5003;66627;29.424;-98.496;2024-02-21T10:09:01;30;24;
77515;PMS5003;66627;29.424;-98.496;2024-02-21T10:11:27;29;27;
77515;PMS5003;66627;29.424;-98.496;2024-02-21T10:16:18;25;25;
77515;PMS5003;66627;29.424;-98.496;2024-02-21T10:18:43;25;24;
77515;PMS5003;66627;29.424;-98.496;2024-02-21T10:21:08;37;33;
77515;PMS5003;66627;29.424;-98.496;2024-02-21T10:23:43;37;32;
77515;PMS5003;66627;29.424;-98.496;2024-02-21T10:28:25;22;22;
77515;PMS5003;66627;29.424;-98.496;2024-02-21T10:30:50;28;25;
77515;PMS5003;66627;29.424;-98.496;2024-02-21T10:33:17;31;27;
77515;PMS5003;66627;29.424;-98.496;2024-02-21T10:35:41;34;30;
77515;PMS5003;66627;29.424;-98.496;2024-02-21T10:38:07;26;25;
77515;PMS5003;66627;29.424;-98.496;2024-02-21T10:40:32;27;23;
77515;PMS5003;66627;29.424;-98.496;2024-02-21T10:42:57;26;22;
77515;PMS5003;66627;29.424;-98.496;2024-02-21T10:45:24;28;25;
77515;PMS5003;66627;29.424;-98.496;2024-02-21T10:47:48;26;23;
77515;PMS5003;66627;29.424;-98.496;2024-02-21T10:50:14;30;23;
77515;PMS5003;66627;29.424;-98.496;2024-02-21T10:52:47;30;24;
77515;PMS5003;66627;29.424;-98.496;2024-02-21T10:55:07;29;25;
77515;PMS5003;66627;29.424;-98.496;2024-02-21T10:57:31;30;24;
77515;PMS5003;66627;29.424;-98.496;2024-02-21T10:59:56;32;28;
77515;PMS5003;66627;29.424;-98.496;2024-02-21T11:02:21;26;25;
77515;PMS5003;66627;29.424;-98.496;2024-02-21T11:04:47;27;22;
77515;PMS5003;66627;29.424;-98.496;2024-02-21T11:07:12;27;22;
77515;PMS5003;66627;29.424;-98.496;2024-02-21T11:09:38;23;21;
77515;PMS5003;66627;29.424;-98.496;2024-02-21T11:12:04;24;21;
77515;PMS5003;66627;29.424;-98.496;2024-02-21T11:14:29;26;25;
77515;PMS5003;66627;29.424;-98.496;2024-02-21T11:16:55;31;30;
77515;PMS5003;66627;29.424;-98.496;2024-02-21T11:19:21;19;19;
77515;PMS5003;66627;29.424;-98.496;2024-02-21T11:21:46;25;21;
77515;PMS5003;66627;29.424;-98.496;2024-02-21T11:24:12;21;17;
77515;PMS5003;66627;29.424;-98.496;2024-02-21T11:26:37;25;22;
77515;PMS5003;66627;29.424;-98.496;2024-02-21T11:29:02;24;21;
77515;PMS5003;66627;29.424;-98.496;2024-02-21T11:33:53;23;21;
77515;PMS5003;66627;29.424;-98.496;2024-02-21T11:38:43;21;20;
77515;PMS5003;66627;29.424;-98.496;2024-02-21T11:41:08;22;19;
77515;PMS5003;66627;29.424;-98.496;2024-02-21T11:43:34;19;18;
77515;PMS5003;66627;29.424;-98.496;2024-02-21T11:46:00;21;19;
77515;PMS5003;66627;29.424;-98.496;2024-02-21T11:48:26;24;21;
77515;PMS5003;66627;29.424;-98.496;2024-02-21T11:50:54;23;19;
77515;PMS5003;66627;29.424;-98.496;2024-02-21T11:53:17;20;19;
77515;PMS5003;66627;29.424;-98.496;2024-02-21T11:55:41;20;19;
77515;PMS5003;66627;29.424;-98.496;2024-02-21T11:58:07;24;24;
77515;PMS5003;66627;29.424;-98.496;2024-02-21T12:00:32;25;21;
77515;PMS5003;66627;29.424;-98.496;2024-02-21T12:02:58;22;20;
77515;PMS5003;66627;29.424;-98.496;2024-02-21T12:05:22;23;22;
77515;PMS5003;66627;29.424;-98.496;2024-02-21T12:07:48;25;25;
77515;PMS5003;66627;29.424;-98.496;2024-02-21T12:10:13;20;20;
77515;PMS5003;66627;29.424;-98.496;2024-02-21T12:12:38;21;21;
77515;PMS5003;66627;29.424;-98.496;2024-02-21T12:15:04;26;22;
77515;PMS5003;66627;29.424;-98.496;2024-02-21T12:17:29;27;23;
77515;PMS5003;66627;29.424;-98.496;2024-02-21T12:19:55;23;22;
77515;PMS5003;66627;29.424;-98.496;2024-02-21T12:22:20;24;22;
77515;PMS5003;66627;29.424;-98.496;2024-02-21T12:24:45;26;22;
77515;PMS5003;66627;29.424;-98.496;2024-02-21T12:27:11;24;23;
77515;PMS5003;66627;29.424;-98.496;2024-02-21T12:29:37;26;20;
77515;PMS5003;66627;29.424;-98.496;2024-02-21T12:32:03;23;22;
77515;PMS5003;66627;29.424;-98.496;2024-02-21T12:34:27;30;25;
77515;PMS5003;66627;29.424;-98.496;2024-02-21T12:36:53;23;21;
77515;PMS5003;66627;29.424;-98.496;2024-02-21T12:39:18;21;18;
77515;PMS5003;66627;29.424;-98.496;2024-02-21T12:41:43;23;21;
77515;PMS5003;66627;29.424;-98.496;2024-02-21T12:44:09;27;24;
77515;PMS5003;66627;29.424;-98.496;2024-02-21T12:46:35;21;20;
77515;PMS5003;66627;29.424;-98.496;2024-02-21T12:49:00;24;22;
77515;PMS5003;66627;29.424;-98.496;2024-02-21T12:51:26;24;20;
77515;PMS5003;66627;29.424;-98.496;2024-02-21T12:53:51;23;23;
77515;PMS5003;66627;29.424;-98.496;2024-02-21T12:56:17;24;22;
77515;PMS5003;66627;29.424;-98.496;2024-02-21T12:58:42;23;23;
77515;PMS5003;66627;29.424;-98.496;2024-02-21T13:01:08;25;20;
77515;PMS5003;66627;29.424;-98.496;2024-02-21T13:03:33;26;25;
77515;PMS5003;66627;29.424;-98.496;2024-02-21T13:05:58;23;22;
77515;PMS5003;66627;29.424;-98.496;2024-02-21T13:08:23;26;22;
77515;PMS5003;66627;29.424;-98.496;2024-02-21T13:10:50;24;24;
77515;PMS5003;66627;29.424;-98.496;2024-02-21T13:13:15;31;30;
77515;PMS5003;66627;29.424;-98.496;2024-02-21T13:15:40;22;21;
77515;PMS5003;66627;29.424;-98.496;2024-02-21T13:18:05;26;21;
77515;PMS5003;66627;29.424;-98.496;2024-02-21T13:20:31;34;30;
77515;PMS5003;66627;29.424;-98.496;2024-02-21T13:22:56;28;27;
77515;PMS5003;66627;29.424;-98.496;2024-02-21T13:25:22;24;22;
77515;PMS5003;66627;29.424;-98.496;2024-02-21T13:27:48;30;29;
77515;PMS5003;66627;29.424;-98.496;2024-02-21T13:30:14;28;26;
77515;PMS5003;66627;29.424;-98.496;2024-02-21T13:32:39;27;27;
77515;PMS5003;66627;29.424;-98.496;2024-02-21T13:35:04;21;21;
77515;PMS5003;66627;29.424;-98.496;2024-02-21T13:37:29;25;23;
77515;PMS5003;66627;29.424;-98.496;2024-02-21T13:39:55;24;20;
77515;PMS5003;66627;29.424;-98.496;2024-02-21T13:42:20;27;24;
77515;PMS5003;66627;29.424;-98.496;2024-02-21T13:44:46;25;25;
77515;PMS5003;66627;29.424;-98.496;2024-02-21T13:47:11;27;24;
77515;PMS5003;66627;29.424;-98.496;2024-02-21T13:49:36;23;22;
77515;PMS5003;66627;29.424;-98.496;2024-02-21T13:52:03;20;19;
77515;PMS5003;66627;29.424;-98.496;2024-02-21T13:54:28;28;26;
77515;PMS5003;66627;29.424;-98.496;2024-02-21T13:56:54;21;19;
77515;PMS5003;66627;29.424;-98.496;2024-02-21T13:59:20;23;21;
77515;PMS5003;66627;29.424;-98.496;2024-02-21T14:01:44;25;20;
77515;PMS5003;66627;29.424;-98.496;2024-02-21T14:04:10;23;22;
77515;PMS5003;66627;29.424;-98.496;2024-02-21T14:06:35;23;23;
77515;PMS5003;66627;29.424;-98.496;2024-02-21T14:09:01;18;16;
77515;PMS5003;66627;29.424;-98.496;2024-02-21T14:11:26;27;24;
77515;PMS5003;66627;29.424;-98.496;2024-02-21T14:13:53;23;20;
77515;PMS5003;66627;29.424;-98.496;2024-02-21T14:16:18;24;22;
77515;PMS5003;66627;29.424;-98.496;2024-02-21T14:18:44;21;21;
77515;PMS5003;66627;29.424;-98.496;2024-02-21T14:21:09;24;23;
77515;PMS5003;66627;29.424;-98.496;2024-02-21T14:23:35;25;24;
77515;PMS5003;66627;29.424;-98.496;2024-02-21T14:26:01;26;24;
77515;PMS5003;66627;29.424;-98.496;2024-02-21T14:28:25;23;21;
77515;PMS5003;66627;29.424;-98.496;2024-02-21T14:33:16;26;24;
77515;PMS5003;66627;29.424;-98.496;2024-02-21T14:35:41;27;21;
77515;PMS5003;66627;29.424;-98.496;2024-02-21T14:38:06;22;21;
77515;PMS5003;66627;29.424;-98.496;2024-02-21T14:40:32;29;29;
77515;PMS5003;66627;29.424;-98.496;2024-02-21T14:42:56;23;20;
77515;PMS5003;66627;29.424;-98.496;2024-02-21T14:45:22;25;25;
77515;PMS5003;66627;29.424;-98.496;2024-02-21T14:47:48;22;20;
77515;PMS5003;66627;29.424;-98.496;2024-02-21T14:50:14;24;21;
77515;PMS5003;66627;29.424;-98.496;2024-02-21T14:52:38;28;25;
77515;PMS5003;66627;29.424;-98.496;2024-02-21T14:55:04;21;19;
77515;PMS5003;66627;29.424;-98.496;2024-02-21T14:57:29;28;26;
77515;PMS5003;66627;29.424;-98.496;2024-02-21T15:02:20;26;23;
77515;PMS5003;66627;29.424;-98.496;2024-02-21T15:04:47;23;21;
77515;PMS5003;66627;29.424;-98.496;2024-02-21T15:07:10;24;21;
77515;PMS5003;66627;29.424;-98.496;2024-02-21T15:09:36;27;22;
77515;PMS5003;66627;29.424;-98.496;2024-02-21T15:12:03;28;23;
77515;PMS5003;66627;29.424;-98.496;2024-02-21T15:14:26;27;24;
77515;PMS5003;66627;29.424;-98.496;2024-02-21T15:16:52;23;21;
77515;PMS5003;66627;29.424;-98.496;2024-02-21T15:19:18;22;21;
77515;PMS5003;66627;29.424;-98.496;2024-02-21T15:21:43;20;20;
77515;PMS5003;66627;29.424;-98.496;2024-02-21T15:24:08;25;22;
77515;PMS5003;66627;29.424;-98.496;2024-02-21T15:26:34;23;22;
77515;PMS5003;66627;29.424;-98.496;2024-02-21T15:29:00;19;19;
77515;PMS5003;66627;29.424;-98.496;2024-02-21T15:31:26;29;24;
77515;PMS5003;66627;29.424;-98.496;2024-02-21T15:33:51;27;25;
77515;PMS5003;66627;29.424;-98.496;2024-02-21T15:36:15;21;18;
77515;PMS5003;66627;29.424;-98.496;2024-02-21T15:38:41;22;22;
77515;PMS5003;66627;29.424;-98.496;2024-02-21T15:41:06;25;22;
77515;PMS5003;66627;29.424;-98.496;2024-02-21T15:43:33;25;22;
77515;PMS5003;66627;29.424;-98.496;2024-02-21T15:45:59;21;21;
77515;PMS5003;66627;29.424;-98.496;2024-02-21T15:48:23;23;20;
77515;PMS5003;66627;29.424;-98.496;2024-02-21T15:50:49;24;22;
77515;PMS5003;66627;29.424;-98.496;2024-02-21T15:53:14;33;29;
77515;PMS5003;66627;29.424;-98.496;2024-02-21T15:55:39;29;24;
77515;PMS5003;66627;29.424;-98.496;2024-02-21T15:58:05;27;19;